Time,TemperatureF,DewpointF,PressureIn,WindDirection,WindDirectionDegrees,WindSpeedMPH,WindSpeedGustMPH,Humidity,HourlyPrecipIn,Conditions,Clouds,dailyrainin,SoftwareType,DateUTC
2013-07-07 00:00:00,65.1,58.5,30.42,SE,135,0.9,0.9,79,0.00,,,0.00,WUHU21636XXSP,2013-07-06 22:00:00,
2013-07-07 00:05:00,64.8,58.6,30.42,SE,135,0.0,0.9,80,0.00,,,0.00,WUHU21636XXSP,2013-07-06 22:05:00,
2013-07-07 00:10:00,64.6,58.7,30.42,SE,135,0.0,0.9,81,0.00,,,0.00,WUHU21636XXSP,2013-07-06 22:10:00,
2013-07-07 00:15:00,64.2,58.3,30.42,SE,135,1.6,1.6,81,0.00,,,0.00,WUHU21636XXSP,2013-07-06 22:15:00,
2013-07-07 00:20:00,64.0,58.1,30.42,SE,135,0.0,1.6,81,0.00,,,0.00,WUHU21636XXSP,2013-07-06 22:20:00,
2013-07-07 00:25:00,63.9,58.3,30.42,SE,135,0.0,1.6,82,0.00,,,0.00,WUHU21636XXSP,2013-07-06 22:25:00,
2013-07-07 00:30:00,63.7,58.1,30.42,SE,135,0.0,0.0,82,0.00,,,0.00,WUHU21636XXSP,2013-07-06 22:30:00,
2013-07-07 00:35:00,63.5,58.0,30.42,SE,135,0.4,0.4,82,0.00,,,0.00,WUHU21636XXSP,2013-07-06 22:35:00,
2013-07-07 00:40:00,63.3,57.8,30.42,SE,135,0.7,0.7,82,0.00,,,0.00,WUHU21636XXSP,2013-07-06 22:40:00,
2013-07-07 00:45:00,63.3,58.1,30.42,SE,135,1.6,1.6,83,0.00,,,0.00,WUHU21636XXSP,2013-07-06 22:45:00,
2013-07-07 00:50:00,63.1,57.9,30.41,South,180,0.0,1.6,83,0.00,,,0.00,WUHU21636XXSP,2013-07-06 22:50:00,
2013-07-07 00:55:00,63.0,58.1,30.42,ESE,113,0.9,1.6,84,0.00,,,0.00,WUHU21636XXSP,2013-07-06 22:55:00,
2013-07-07 01:00:00,62.8,57.9,30.42,SE,135,2.5,2.5,84,0.00,,,0.00,WUHU21636XXSP,2013-07-06 23:00:00,
2013-07-07 01:05:00,62.4,57.5,30.42,SE,135,0.7,2.5,84,0.00,,,0.00,WUHU21636XXSP,2013-07-06 23:05:00,
2013-07-07 01:10:00,62.4,57.5,30.42,ESE,113,0.7,2.5,84,0.00,,,0.00,WUHU21636XXSP,2013-07-06 23:10:00,
2013-07-07 01:15:00,62.4,57.8,30.42,SE,135,0.0,0.7,85,0.00,,,0.00,WUHU21636XXSP,2013-07-06 23:15:00,
2013-07-07 01:20:00,62.4,57.8,30.42,SE,135,2.2,2.2,85,0.00,,,0.00,WUHU21636XXSP,2013-07-06 23:20:00,
2013-07-07 01:25:00,62.4,57.8,30.42,ESE,113,0.0,2.2,85,0.00,,,0.00,WUHU21636XXSP,2013-07-06 23:25:00,
2013-07-07 01:30:00,62.2,57.6,30.42,ESE,113,1.1,2.2,85,0.00,,,0.00,WUHU21636XXSP,2013-07-06 23:30:00,
2013-07-07 01:35:00,62.2,57.6,30.42,SE,135,0.7,1.1,85,0.00,,,0.00,WUHU21636XXSP,2013-07-06 23:35:00,
2013-07-07 01:40:00,62.2,57.6,30.42,SE,135,0.0,1.1,85,0.00,,,0.00,WUHU21636XXSP,2013-07-06 23:40:00,
2013-07-07 01:45:00,62.2,57.6,30.43,SE,135,0.0,0.7,85,0.00,,,0.00,WUHU21636XXSP,2013-07-06 23:45:00,
2013-07-07 01:50:00,62.2,57.6,30.43,ESE,113,1.3,1.3,85,0.00,,,0.00,WUHU21636XXSP,2013-07-06 23:50:00,
2013-07-07 01:55:00,62.2,57.6,30.43,SE,135,0.0,1.3,85,0.00,,,0.00,WUHU21636XXSP,2013-07-06 23:55:00,
2013-07-07 02:00:00,61.9,57.4,30.42,SE,135,0.0,1.3,85,0.00,,,0.00,WUHU21636XXSP,2013-07-07 00:00:00,
2013-07-07 02:05:00,61.9,57.4,30.43,SE,135,0.0,0.0,85,0.00,,,0.00,WUHU21636XXSP,2013-07-07 00:05:00,
2013-07-07 02:10:00,61.7,57.5,30.42,ESE,113,1.1,1.1,86,0.00,,,0.00,WUHU21636XXSP,2013-07-07 00:10:00,
2013-07-07 02:15:00,61.5,57.3,30.42,ESE,113,0.0,1.1,86,0.00,,,0.00,WUHU21636XXSP,2013-07-07 00:15:00,
2013-07-07 02:20:00,61.5,57.3,30.42,SE,135,1.6,1.6,86,0.00,,,0.00,WUHU21636XXSP,2013-07-07 00:20:00,
2013-07-07 02:25:00,61.3,57.1,30.42,SE,135,0.9,1.6,86,0.00,,,0.00,WUHU21636XXSP,2013-07-07 00:25:00,
2013-07-07 02:30:00,61.2,57.0,30.42,SSE,158,0.0,1.6,86,0.00,,,0.00,WUHU21636XXSP,2013-07-07 00:30:00,
2013-07-07 02:35:00,61.0,56.8,30.42,SE,135,0.4,0.9,86,0.00,,,0.00,WUHU21636XXSP,2013-07-07 00:35:00,
2013-07-07 02:40:00,60.8,56.9,30.42,SE,135,0.4,0.4,87,0.00,,,0.00,WUHU21636XXSP,2013-07-07 00:40:00,
2013-07-07 02:45:00,60.6,56.7,30.42,SE,135,0.0,0.4,87,0.00,,,0.00,WUHU21636XXSP,2013-07-07 00:45:00,
2013-07-07 02:50:00,60.4,56.5,30.42,SE,135,1.3,1.3,87,0.00,,,0.00,WUHU21636XXSP,2013-07-07 00:50:00,
2013-07-07 02:55:00,60.4,56.5,30.42,SE,135,0.0,1.3,87,0.00,,,0.00,WUHU21636XXSP,2013-07-07 00:55:00,
2013-07-07 03:00:00,60.3,56.4,30.42,SE,135,0.0,1.3,87,0.00,,,0.00,WUHU21636XXSP,2013-07-07 01:00:00,
2013-07-07 03:05:00,60.1,56.2,30.41,SE,135,0.7,0.7,87,0.00,,,0.00,WUHU21636XXSP,2013-07-07 01:05:00,
2013-07-07 03:10:00,60.1,56.5,30.41,SE,135,1.6,1.6,88,0.00,,,0.00,WUHU21636XXSP,2013-07-07 01:10:00,
2013-07-07 03:15:00,59.9,56.3,30.41,SE,135,1.3,1.6,88,0.00,,,0.00,WUHU21636XXSP,2013-07-07 01:15:00,
2013-07-07 03:20:00,59.7,56.1,30.41,SE,135,1.8,1.8,88,0.00,,,0.00,WUHU21636XXSP,2013-07-07 01:20:00,
2013-07-07 03:25:00,59.7,56.1,30.41,SE,135,1.1,1.8,88,0.00,,,0.00,WUHU21636XXSP,2013-07-07 01:25:00,
2013-07-07 03:30:00,59.7,56.1,30.41,SE,135,0.9,1.8,88,0.00,,,0.00,WUHU21636XXSP,2013-07-07 01:30:00,
2013-07-07 03:35:00,59.5,55.9,30.41,SE,135,1.8,1.8,88,0.00,,,0.00,WUHU21636XXSP,2013-07-07 01:35:00,
2013-07-07 03:40:00,59.4,56.1,30.41,ESE,113,2.2,2.2,89,0.00,,,0.00,WUHU21636XXSP,2013-07-07 01:40:00,
2013-07-07 03:45:00,59.4,56.1,30.41,SE,135,0.9,2.2,89,0.00,,,0.00,WUHU21636XXSP,2013-07-07 01:45:00,
2013-07-07 03:50:00,59.2,55.9,30.41,SE,135,0.4,2.2,89,0.00,,,0.00,WUHU21636XXSP,2013-07-07 01:50:00,
2013-07-07 03:55:00,59.2,55.9,30.41,ESE,113,0.0,0.9,89,0.00,,,0.00,WUHU21636XXSP,2013-07-07 01:55:00,
2013-07-07 04:00:00,58.8,55.5,30.41,SE,135,0.0,0.4,89,0.00,,,0.00,WUHU21636XXSP,2013-07-07 02:00:00,
2013-07-07 04:05:00,58.8,55.5,30.41,SE,135,2.0,2.0,89,0.00,,,0.00,WUHU21636XXSP,2013-07-07 02:05:00,
2013-07-07 04:10:00,58.8,55.5,30.41,SE,135,1.6,2.0,89,0.00,,,0.00,WUHU21636XXSP,2013-07-07 02:10:00,
2013-07-07 04:15:00,58.6,55.3,30.41,SE,135,0.7,2.0,89,0.00,,,0.00,WUHU21636XXSP,2013-07-07 02:15:00,
2013-07-07 04:20:00,58.6,55.3,30.41,ESE,113,0.4,1.6,89,0.00,,,0.00,WUHU21636XXSP,2013-07-07 02:20:00,
2013-07-07 04:25:00,58.6,55.3,30.41,SE,135,1.8,1.8,89,0.00,,,0.00,WUHU21636XXSP,2013-07-07 02:25:00,
2013-07-07 04:30:00,58.5,55.2,30.41,SE,135,0.0,1.8,89,0.00,,,0.00,WUHU21636XXSP,2013-07-07 02:30:00,
2013-07-07 04:35:00,58.3,55.0,30.41,ESE,113,0.4,1.8,89,0.00,,,0.00,WUHU21636XXSP,2013-07-07 02:35:00,
2013-07-07 04:40:00,58.3,55.3,30.41,SE,135,1.6,1.6,90,0.00,,,0.00,WUHU21636XXSP,2013-07-07 02:40:00,
2013-07-07 04:45:00,58.3,55.3,30.41,SE,135,1.3,1.6,90,0.00,,,0.00,WUHU21636XXSP,2013-07-07 02:45:00,
2013-07-07 04:50:00,58.3,55.3,30.41,ESE,113,1.1,1.6,90,0.00,,,0.00,WUHU21636XXSP,2013-07-07 02:50:00,
2013-07-07 04:55:00,58.3,55.3,30.41,SE,135,1.6,1.6,90,0.00,,,0.00,WUHU21636XXSP,2013-07-07 02:55:00,
2013-07-07 05:00:00,58.1,55.2,30.41,SE,135,1.1,1.6,90,0.00,,,0.00,WUHU21636XXSP,2013-07-07 03:00:00,
2013-07-07 05:05:00,58.1,55.2,30.41,ESE,113,0.0,1.6,90,0.00,,,0.00,WUHU21636XXSP,2013-07-07 03:05:00,
2013-07-07 05:10:00,58.1,55.2,30.42,ESE,113,0.9,1.1,90,0.00,,,0.00,WUHU21636XXSP,2013-07-07 03:10:00,
2013-07-07 05:15:00,58.1,55.2,30.42,SE,135,1.3,1.3,90,0.00,,,0.00,WUHU21636XXSP,2013-07-07 03:15:00,
2013-07-07 05:20:00,57.9,55.0,30.42,SE,135,1.8,1.8,90,0.00,,,0.00,WUHU21636XXSP,2013-07-07 03:20:00,
2013-07-07 05:25:00,57.9,55.0,30.42,SE,135,0.0,1.8,90,0.00,,,0.00,WUHU21636XXSP,2013-07-07 03:25:00,
2013-07-07 05:30:00,57.9,55.0,30.42,SE,135,0.0,1.8,90,0.00,,,0.00,WUHU21636XXSP,2013-07-07 03:30:00,
2013-07-07 05:35:00,57.9,55.0,30.42,SE,135,1.1,1.1,90,0.00,,,0.00,WUHU21636XXSP,2013-07-07 03:35:00,
2013-07-07 05:40:00,57.9,55.0,30.42,SE,135,0.0,1.1,90,0.00,,,0.00,WUHU21636XXSP,2013-07-07 03:40:00,
2013-07-07 05:45:00,57.9,55.0,30.42,SE,135,0.0,1.1,90,0.00,,,0.00,WUHU21636XXSP,2013-07-07 03:45:00,
2013-07-07 05:50:00,57.9,55.0,30.42,ESE,113,0.0,0.0,90,0.00,,,0.00,WUHU21636XXSP,2013-07-07 03:50:00,
2013-07-07 05:55:00,57.9,55.0,30.42,SE,135,0.0,0.0,90,0.00,,,0.00,WUHU21636XXSP,2013-07-07 03:55:00,
2013-07-07 06:00:00,58.1,55.2,30.42,SE,135,0.9,0.9,90,0.00,,,0.00,WUHU21636XXSP,2013-07-07 04:00:00,
2013-07-07 06:05:00,58.1,55.2,30.42,SE,135,1.6,1.6,90,0.00,,,0.00,WUHU21636XXSP,2013-07-07 04:05:00,
2013-07-07 06:10:00,58.3,55.3,30.42,SE,135,0.0,1.6,90,0.00,,,0.00,WUHU21636XXSP,2013-07-07 04:10:00,
2013-07-07 06:15:00,58.3,55.3,30.42,SE,135,0.0,1.6,90,0.00,,,0.00,WUHU21636XXSP,2013-07-07 04:15:00,
2013-07-07 06:20:00,58.6,55.6,30.42,SE,135,0.7,0.7,90,0.00,,,0.00,WUHU21636XXSP,2013-07-07 04:20:00,
2013-07-07 06:25:00,58.6,55.6,30.42,SE,135,0.4,0.7,90,0.00,,,0.00,WUHU21636XXSP,2013-07-07 04:25:00,
2013-07-07 06:30:00,58.6,55.6,30.42,SE,135,0.9,0.9,90,0.00,,,0.00,WUHU21636XXSP,2013-07-07 04:30:00,
2013-07-07 06:35:00,58.8,55.8,30.42,SE,135,0.0,0.9,90,0.00,,,0.00,WUHU21636XXSP,2013-07-07 04:35:00,
2013-07-07 06:40:00,59.0,56.0,30.42,SE,135,1.6,1.6,90,0.00,,,0.00,WUHU21636XXSP,2013-07-07 04:40:00,
2013-07-07 06:45:00,59.2,56.2,30.42,SE,135,0.0,1.6,90,0.00,,,0.00,WUHU21636XXSP,2013-07-07 04:45:00,
2013-07-07 06:50:00,59.2,56.2,30.42,SE,135,0.0,1.6,90,0.00,,,0.00,WUHU21636XXSP,2013-07-07 04:50:00,
2013-07-07 06:55:00,59.4,56.4,30.42,SE,135,0.0,0.0,90,0.00,,,0.00,WUHU21636XXSP,2013-07-07 04:55:00,
2013-07-07 07:00:00,59.4,56.4,30.42,SE,135,0.0,0.0,90,0.00,,,0.00,WUHU21636XXSP,2013-07-07 05:00:00,
2013-07-07 07:05:00,59.5,56.5,30.42,SE,135,0.9,0.9,90,0.00,,,0.00,WUHU21636XXSP,2013-07-07 05:05:00,
2013-07-07 07:10:00,59.7,56.7,30.42,SE,135,0.0,0.9,90,0.00,,,0.00,WUHU21636XXSP,2013-07-07 05:10:00,
2013-07-07 07:15:00,59.9,56.9,30.42,ESE,113,0.0,0.9,90,0.00,,,0.00,WUHU21636XXSP,2013-07-07 05:15:00,
2013-07-07 07:20:00,60.4,57.4,30.42,ESE,113,1.6,1.6,90,0.00,,,0.00,WUHU21636XXSP,2013-07-07 05:20:00,
2013-07-07 07:25:00,60.6,57.6,30.42,SE,135,2.0,2.0,90,0.00,,,0.00,WUHU21636XXSP,2013-07-07 05:25:00,
2013-07-07 07:30:00,61.0,58.0,30.42,ESE,113,0.4,2.0,90,0.00,,,0.00,WUHU21636XXSP,2013-07-07 05:30:00,
2013-07-07 07:35:00,61.3,58.0,30.43,SE,135,1.3,2.0,89,0.00,,,0.00,WUHU21636XXSP,2013-07-07 05:35:00,
2013-07-07 07:40:00,61.9,58.6,30.43,SE,135,0.0,1.3,89,0.00,,,0.00,WUHU21636XXSP,2013-07-07 05:40:00,
2013-07-07 07:45:00,62.2,58.9,30.43,SE,135,0.0,1.3,89,0.00,,,0.00,WUHU21636XXSP,2013-07-07 05:45:00,
2013-07-07 07:50:00,62.8,59.5,30.43,NW,315,0.0,0.0,89,0.00,,,0.00,WUHU21636XXSP,2013-07-07 05:50:00,
2013-07-07 07:55:00,63.1,58.8,30.43,WNW,293,0.0,0.0,86,0.00,,,0.00,WUHU21636XXSP,2013-07-07 05:55:00,
2013-07-07 08:00:00,63.5,58.9,30.43,NW,315,0.0,0.0,85,0.00,,,0.00,WUHU21636XXSP,2013-07-07 06:00:00,
2013-07-07 08:05:00,64.0,58.8,30.43,NW,315,0.0,0.0,83,0.00,,,0.00,WUHU21636XXSP,2013-07-07 06:05:00,
2013-07-07 08:10:00,64.2,58.6,30.43,NNW,338,0.0,0.0,82,0.00,,,0.00,WUHU21636XXSP,2013-07-07 06:10:00,
2013-07-07 08:15:00,64.6,58.7,30.43,NW,315,0.0,0.0,81,0.00,,,0.00,WUHU21636XXSP,2013-07-07 06:15:00,
2013-07-07 08:20:00,64.6,58.4,30.43,WNW,293,0.0,0.0,80,0.00,,,0.00,WUHU21636XXSP,2013-07-07 06:20:00,
2013-07-07 08:25:00,64.9,58.7,30.43,West,270,0.0,0.0,80,0.00,,,0.00,WUHU21636XXSP,2013-07-07 06:25:00,
2013-07-07 08:30:00,64.9,58.7,30.44,SE,135,0.0,0.0,80,0.00,,,0.00,WUHU21636XXSP,2013-07-07 06:30:00,
2013-07-07 08:35:00,65.1,58.5,30.44,NW,315,0.0,0.0,79,0.00,,,0.00,WUHU21636XXSP,2013-07-07 06:35:00,
2013-07-07 08:40:00,65.3,58.7,30.43,NW,315,0.0,0.0,79,0.00,,,0.00,WUHU21636XXSP,2013-07-07 06:40:00,
2013-07-07 08:45:00,65.5,58.9,30.44,WNW,293,0.0,0.0,79,0.00,,,0.00,WUHU21636XXSP,2013-07-07 06:45:00,
2013-07-07 08:50:00,65.7,59.1,30.44,West,270,0.0,0.0,79,0.00,,,0.00,WUHU21636XXSP,2013-07-07 06:50:00,
2013-07-07 08:55:00,65.8,59.2,30.44,SSW,203,0.0,0.0,79,0.00,,,0.00,WUHU21636XXSP,2013-07-07 06:55:00,
2013-07-07 09:00:00,66.0,59.4,30.44,SW,225,0.0,0.0,79,0.00,,,0.00,WUHU21636XXSP,2013-07-07 07:00:00,
2013-07-07 09:05:00,66.4,59.4,30.44,NW,315,0.0,0.0,78,0.00,,,0.00,WUHU21636XXSP,2013-07-07 07:05:00,
2013-07-07 09:10:00,66.7,59.7,30.44,NW,315,0.0,0.0,78,0.00,,,0.00,WUHU21636XXSP,2013-07-07 07:10:00,
2013-07-07 09:15:00,66.9,59.9,30.44,ESE,113,0.0,0.0,78,0.00,,,0.00,WUHU21636XXSP,2013-07-07 07:15:00,
2013-07-07 09:20:00,66.9,59.9,30.44,WNW,293,0.0,0.0,78,0.00,,,0.00,WUHU21636XXSP,2013-07-07 07:20:00,
2013-07-07 09:25:00,67.3,60.3,30.44,WNW,293,0.0,0.0,78,0.00,,,0.00,WUHU21636XXSP,2013-07-07 07:25:00,
2013-07-07 09:30:00,67.6,60.6,30.44,WNW,293,0.0,0.0,78,0.00,,,0.00,WUHU21636XXSP,2013-07-07 07:30:00,
2013-07-07 09:35:00,67.8,60.8,30.44,WNW,293,0.4,0.4,78,0.00,,,0.00,WUHU21636XXSP,2013-07-07 07:35:00,
2013-07-07 09:40:00,68.2,60.8,30.44,WNW,293,0.0,0.4,77,0.00,,,0.00,WUHU21636XXSP,2013-07-07 07:40:00,
2013-07-07 09:45:00,68.5,60.8,30.44,WNW,293,0.0,0.4,76,0.00,,,0.00,WUHU21636XXSP,2013-07-07 07:45:00,
2013-07-07 09:50:00,68.7,59.8,30.44,WNW,293,0.0,0.0,73,0.00,,,0.00,WUHU21636XXSP,2013-07-07 07:50:00,
2013-07-07 09:55:00,70.0,59.1,30.44,WNW,293,1.8,1.8,68,0.00,,,0.00,WUHU21636XXSP,2013-07-07 07:55:00,
2013-07-07 10:00:00,70.5,58.8,30.44,WNW,293,1.3,1.8,66,0.00,,,0.00,WUHU21636XXSP,2013-07-07 08:00:00,
2013-07-07 10:05:00,71.1,58.9,30.44,West,270,2.9,2.9,65,0.00,,,0.00,WUHU21636XXSP,2013-07-07 08:05:00,
2013-07-07 10:10:00,71.1,57.6,30.44,WNW,293,2.0,2.9,62,0.00,,,0.00,WUHU21636XXSP,2013-07-07 08:10:00,
2013-07-07 10:15:00,71.4,57.9,30.44,WNW,293,2.2,2.9,62,0.00,,,0.00,WUHU21636XXSP,2013-07-07 08:15:00,
2013-07-07 10:20:00,71.8,57.8,30.44,WNW,293,4.5,4.5,61,0.00,,,0.00,WUHU21636XXSP,2013-07-07 08:20:00,
2013-07-07 10:25:00,72.0,58.0,30.44,WSW,248,1.3,4.5,61,0.00,,,0.00,WUHU21636XXSP,2013-07-07 08:25:00,
2013-07-07 10:30:00,72.1,56.2,30.44,WNW,293,3.4,4.5,57,0.00,,,0.00,WUHU21636XXSP,2013-07-07 08:30:00,
2013-07-07 10:35:00,72.1,57.2,30.44,WNW,293,2.7,3.4,59,0.00,,,0.00,WUHU21636XXSP,2013-07-07 08:35:00,
2013-07-07 10:40:00,72.3,57.4,30.44,WNW,293,0.0,3.4,59,0.00,,,0.00,WUHU21636XXSP,2013-07-07 08:40:00,
2013-07-07 10:45:00,73.2,58.2,30.44,ESE,113,0.0,2.7,59,0.00,,,0.00,WUHU21636XXSP,2013-07-07 08:45:00,
2013-07-07 10:50:00,73.2,56.7,30.44,NW,315,0.0,0.0,56,0.00,,,0.00,WUHU21636XXSP,2013-07-07 08:50:00,
2013-07-07 10:55:00,73.2,56.2,30.44,WNW,293,2.2,2.2,55,0.00,,,0.00,WUHU21636XXSP,2013-07-07 08:55:00,
2013-07-07 11:00:00,73.2,57.7,30.44,NW,315,0.0,2.2,58,0.00,,,0.00,WUHU21636XXSP,2013-07-07 09:00:00,
2013-07-07 11:05:00,73.9,57.9,30.44,West,270,0.0,2.2,57,0.00,,,0.00,WUHU21636XXSP,2013-07-07 09:05:00,
2013-07-07 11:10:00,73.9,57.4,30.44,WNW,293,0.7,0.7,56,0.00,,,0.00,WUHU21636XXSP,2013-07-07 09:10:00,
2013-07-07 11:15:00,75.0,57.9,30.43,WNW,293,0.0,0.7,55,0.00,,,0.00,WUHU21636XXSP,2013-07-07 09:15:00,
2013-07-07 11:20:00,76.1,60.4,30.43,WNW,293,0.0,0.7,58,0.00,,,0.00,WUHU21636XXSP,2013-07-07 09:20:00,
2013-07-07 11:25:00,77.2,59.4,30.43,SSW,203,0.0,0.0,54,0.00,,,0.00,WUHU21636XXSP,2013-07-07 09:25:00,
2013-07-07 11:30:00,77.4,58.5,30.43,WNW,293,2.2,2.2,52,0.00,,,0.00,WUHU21636XXSP,2013-07-07 09:30:00,
2013-07-07 11:35:00,77.2,57.8,30.43,East,90,0.7,2.2,51,0.00,,,0.00,WUHU21636XXSP,2013-07-07 09:35:00,
2013-07-07 11:40:00,77.2,57.8,30.43,West,270,2.5,2.5,51,0.00,,,0.00,WUHU21636XXSP,2013-07-07 09:40:00,
2013-07-07 11:45:00,76.6,57.8,30.43,South,180,0.0,2.5,52,0.00,,,0.00,WUHU21636XXSP,2013-07-07 09:45:00,
2013-07-07 11:50:00,77.0,59.2,30.43,ESE,113,3.1,3.1,54,0.00,,,0.00,WUHU21636XXSP,2013-07-07 09:50:00,
2013-07-07 11:55:00,76.3,57.5,30.43,WNW,293,0.0,3.1,52,0.00,,,0.00,WUHU21636XXSP,2013-07-07 09:55:00,
2013-07-07 12:00:00,75.4,56.7,30.44,West,270,0.9,3.1,52,0.00,,,0.00,WUHU21636XXSP,2013-07-07 10:00:00,
2013-07-07 12:05:00,75.4,56.7,30.43,NW,315,0.7,0.9,52,0.00,,,0.00,WUHU21636XXSP,2013-07-07 10:05:00,
2013-07-07 12:10:00,75.0,55.7,30.43,West,270,0.0,0.9,51,0.00,,,0.00,WUHU21636XXSP,2013-07-07 10:10:00,
2013-07-07 12:15:00,75.7,57.5,30.43,West,270,0.0,0.7,53,0.00,,,0.00,WUHU21636XXSP,2013-07-07 10:15:00,
2013-07-07 12:20:00,76.8,58.5,30.43,West,270,0.0,0.0,53,0.00,,,0.00,WUHU21636XXSP,2013-07-07 10:20:00,
2013-07-07 12:25:00,77.7,57.7,30.43,WNW,293,0.9,0.9,50,0.00,,,0.00,WUHU21636XXSP,2013-07-07 10:25:00,
2013-07-07 12:30:00,78.4,58.9,30.43,WNW,293,1.1,1.1,51,0.00,,,0.00,WUHU21636XXSP,2013-07-07 10:30:00,
2013-07-07 12:35:00,78.6,57.9,30.43,WNW,293,1.6,1.6,49,0.00,,,0.00,WUHU21636XXSP,2013-07-07 10:35:00,
2013-07-07 12:40:00,78.4,57.7,30.43,WNW,293,1.3,1.6,49,0.00,,,0.00,WUHU21636XXSP,2013-07-07 10:40:00,
2013-07-07 12:45:00,78.6,57.9,30.43,SSW,203,0.4,1.6,49,0.00,,,0.00,WUHU21636XXSP,2013-07-07 10:45:00,
2013-07-07 12:50:00,79.3,58.0,30.43,WSW,248,1.1,1.3,48,0.00,,,0.00,WUHU21636XXSP,2013-07-07 10:50:00,
2013-07-07 12:55:00,79.3,56.8,30.43,West,270,0.4,1.1,46,0.00,,,0.00,WUHU21636XXSP,2013-07-07 10:55:00,
2013-07-07 13:00:00,80.1,58.1,30.43,SE,135,1.3,1.3,47,0.00,,,0.00,WUHU21636XXSP,2013-07-07 11:00:00,
2013-07-07 13:05:00,79.0,57.7,30.43,WNW,293,0.0,1.3,48,0.00,,,0.00,WUHU21636XXSP,2013-07-07 11:05:00,
2013-07-07 13:10:00,77.9,57.3,30.42,WNW,293,0.0,1.3,49,0.00,,,0.00,WUHU21636XXSP,2013-07-07 11:10:00,
2013-07-07 13:15:00,77.7,58.2,30.42,SSE,158,0.7,0.7,51,0.00,,,0.00,WUHU21636XXSP,2013-07-07 11:15:00,
2013-07-07 13:20:00,76.8,57.4,30.43,WNW,293,1.1,1.1,51,0.00,,,0.00,WUHU21636XXSP,2013-07-07 11:20:00,
2013-07-07 13:25:00,76.6,57.8,30.42,WNW,293,3.8,3.8,52,0.00,,,0.00,WUHU21636XXSP,2013-07-07 11:25:00,
2013-07-07 13:30:00,76.8,57.4,30.42,WNW,293,1.3,3.8,51,0.00,,,0.00,WUHU21636XXSP,2013-07-07 11:30:00,
2013-07-07 13:35:00,78.4,58.3,30.42,WNW,293,0.0,3.8,50,0.00,,,0.00,WUHU21636XXSP,2013-07-07 11:35:00,
2013-07-07 13:40:00,79.9,58.5,30.42,WNW,293,2.9,2.9,48,0.00,,,0.00,WUHU21636XXSP,2013-07-07 11:40:00,
2013-07-07 13:45:00,79.3,57.4,30.42,WNW,293,3.8,3.8,47,0.00,,,0.00,WUHU21636XXSP,2013-07-07 11:45:00,
2013-07-07 13:50:00,79.0,57.1,30.42,NW,315,0.0,3.8,47,0.00,,,0.00,WUHU21636XXSP,2013-07-07 11:50:00,
2013-07-07 13:55:00,79.0,57.7,30.42,WNW,293,3.1,3.8,48,0.00,,,0.00,WUHU21636XXSP,2013-07-07 11:55:00,
2013-07-07 14:00:00,79.7,57.7,30.42,WNW,293,2.2,3.1,47,0.00,,,0.00,WUHU21636XXSP,2013-07-07 12:00:00,
2013-07-07 14:05:00,80.4,58.4,30.42,WNW,293,2.5,3.1,47,0.00,,,0.00,WUHU21636XXSP,2013-07-07 12:05:00,
2013-07-07 14:10:00,81.1,59.0,30.42,West,270,1.3,2.5,47,0.00,,,0.00,WUHU21636XXSP,2013-07-07 12:10:00,
2013-07-07 14:15:00,80.4,58.4,30.42,WNW,293,0.7,2.5,47,0.00,,,0.00,WUHU21636XXSP,2013-07-07 12:15:00,
2013-07-07 14:20:00,79.5,57.6,30.42,WNW,293,0.0,1.3,47,0.00,,,0.00,WUHU21636XXSP,2013-07-07 12:20:00,
2013-07-07 14:25:00,80.2,56.3,30.42,ESE,113,1.1,1.1,44,0.00,,,0.00,WUHU21636XXSP,2013-07-07 12:25:00,
2013-07-07 14:30:00,80.4,57.1,30.41,West,270,1.3,1.3,45,0.00,,,0.00,WUHU21636XXSP,2013-07-07 12:30:00,
2013-07-07 14:35:00,82.0,59.2,30.41,WNW,293,2.0,2.0,46,0.00,,,0.00,WUHU21636XXSP,2013-07-07 12:35:00,
2013-07-07 14:40:00,81.9,57.9,30.41,WNW,293,2.2,2.2,44,0.00,,,0.00,WUHU21636XXSP,2013-07-07 12:40:00,
2013-07-07 14:45:00,81.7,56.3,30.41,WNW,293,1.1,2.2,42,0.00,,,0.00,WUHU21636XXSP,2013-07-07 12:45:00,
2013-07-07 14:50:00,81.7,56.3,30.41,WNW,293,1.1,2.2,42,0.00,,,0.00,WUHU21636XXSP,2013-07-07 12:50:00,
2013-07-07 14:55:00,81.5,56.2,30.41,WNW,293,0.7,1.1,42,0.00,,,0.00,WUHU21636XXSP,2013-07-07 12:55:00,
2013-07-07 15:00:00,81.7,57.7,30.41,WNW,293,2.7,2.7,44,0.00,,,0.00,WUHU21636XXSP,2013-07-07 13:00:00,
2013-07-07 15:05:00,80.2,56.3,30.41,WNW,293,0.0,2.7,44,0.00,,,0.00,WUHU21636XXSP,2013-07-07 13:05:00,
2013-07-07 15:10:00,79.3,56.8,30.41,WNW,293,1.1,2.7,46,0.00,,,0.00,WUHU21636XXSP,2013-07-07 13:10:00,
2013-07-07 15:15:00,80.2,58.2,30.40,ENE,68,0.9,1.1,47,0.00,,,0.00,WUHU21636XXSP,2013-07-07 13:15:00,
2013-07-07 15:20:00,82.2,58.8,30.40,East,90,0.4,1.1,45,0.00,,,0.00,WUHU21636XXSP,2013-07-07 13:20:00,
2013-07-07 15:25:00,82.8,58.7,30.40,NW,315,1.8,1.8,44,0.00,,,0.00,WUHU21636XXSP,2013-07-07 13:25:00,
2013-07-07 15:30:00,81.7,57.7,30.40,WNW,293,2.5,2.5,44,0.00,,,0.00,WUHU21636XXSP,2013-07-07 13:30:00,
2013-07-07 15:35:00,80.8,56.9,30.41,WNW,293,0.9,2.5,44,0.00,,,0.00,WUHU21636XXSP,2013-07-07 13:35:00,
2013-07-07 15:40:00,81.1,57.8,30.41,WNW,293,2.2,2.5,45,0.00,,,0.00,WUHU21636XXSP,2013-07-07 13:40:00,
2013-07-07 15:45:00,82.0,57.9,30.40,WNW,293,0.0,2.2,44,0.00,,,0.00,WUHU21636XXSP,2013-07-07 13:45:00,
2013-07-07 15:50:00,81.7,56.3,30.40,WNW,293,0.4,2.2,42,0.00,,,0.00,WUHU21636XXSP,2013-07-07 13:50:00,
2013-07-07 15:55:00,82.6,56.5,30.40,WNW,293,0.0,0.4,41,0.00,,,0.00,WUHU21636XXSP,2013-07-07 13:55:00,
2013-07-07 16:00:00,82.6,57.8,30.40,West,270,2.0,2.0,43,0.00,,,0.00,WUHU21636XXSP,2013-07-07 14:00:00,
2013-07-07 16:05:00,83.5,60.6,30.41,South,180,0.0,2.0,46,0.00,,,0.00,WUHU21636XXSP,2013-07-07 14:05:00,
2013-07-07 16:10:00,83.1,58.3,30.41,South,180,1.8,2.0,43,0.00,,,0.00,WUHU21636XXSP,2013-07-07 14:10:00,
2013-07-07 16:15:00,81.9,58.5,30.41,West,270,0.0,1.8,45,0.00,,,0.00,WUHU21636XXSP,2013-07-07 14:15:00,
2013-07-07 16:20:00,81.3,58.6,30.41,West,270,0.0,1.8,46,0.00,,,0.00,WUHU21636XXSP,2013-07-07 14:20:00,
2013-07-07 16:25:00,81.3,58.0,30.41,WNW,293,1.6,1.6,45,0.00,,,0.00,WUHU21636XXSP,2013-07-07 14:25:00,
2013-07-07 16:30:00,81.7,59.0,30.40,WNW,293,0.0,1.6,46,0.00,,,0.00,WUHU21636XXSP,2013-07-07 14:30:00,
2013-07-07 16:35:00,82.4,58.3,30.40,WNW,293,1.8,1.8,44,0.00,,,0.00,WUHU21636XXSP,2013-07-07 14:35:00,
2013-07-07 16:40:00,82.6,57.8,30.40,NW,315,1.3,1.8,43,0.00,,,0.00,WUHU21636XXSP,2013-07-07 14:40:00,
2013-07-07 16:45:00,82.9,56.7,30.40,WNW,293,5.6,5.6,41,0.00,,,0.00,WUHU21636XXSP,2013-07-07 14:45:00,
2013-07-07 16:50:00,81.9,57.9,30.40,WNW,293,0.0,5.6,44,0.00,,,0.00,WUHU21636XXSP,2013-07-07 14:50:00,
2013-07-07 16:55:00,82.0,55.9,30.40,WNW,293,0.0,5.6,41,0.00,,,0.00,WUHU21636XXSP,2013-07-07 14:55:00,
2013-07-07 17:00:00,82.2,55.4,30.40,WNW,293,0.4,0.4,40,0.00,,,0.00,WUHU21636XXSP,2013-07-07 15:00:00,
2013-07-07 17:05:00,82.9,56.7,30.40,NW,315,1.6,1.6,41,0.00,,,0.00,WUHU21636XXSP,2013-07-07 15:05:00,
2013-07-07 17:10:00,82.2,56.8,30.39,WSW,248,0.7,1.6,42,0.00,,,0.00,WUHU21636XXSP,2013-07-07 15:10:00,
2013-07-07 17:15:00,82.2,56.8,30.39,WNW,293,2.2,2.2,42,0.00,,,0.00,WUHU21636XXSP,2013-07-07 15:15:00,
2013-07-07 17:20:00,81.5,56.8,30.39,WNW,293,0.0,2.2,43,0.00,,,0.00,WUHU21636XXSP,2013-07-07 15:20:00,
2013-07-07 17:25:00,82.0,57.3,30.39,WNW,293,0.4,2.2,43,0.00,,,0.00,WUHU21636XXSP,2013-07-07 15:25:00,
2013-07-07 17:30:00,82.6,56.5,30.39,WNW,293,0.9,0.9,41,0.00,,,0.00,WUHU21636XXSP,2013-07-07 15:30:00,
2013-07-07 17:35:00,83.3,58.5,30.39,WNW,293,0.0,0.9,43,0.00,,,0.00,WUHU21636XXSP,2013-07-07 15:35:00,
2013-07-07 17:40:00,83.3,57.1,30.39,NW,315,0.0,0.9,41,0.00,,,0.00,WUHU21636XXSP,2013-07-07 15:40:00,
2013-07-07 17:45:00,82.6,57.2,30.39,NW,315,0.0,0.0,42,0.00,,,0.00,WUHU21636XXSP,2013-07-07 15:45:00,
2013-07-07 17:50:00,82.0,55.9,30.38,NW,315,0.0,0.0,41,0.00,,,0.00,WUHU21636XXSP,2013-07-07 15:50:00,
2013-07-07 17:55:00,82.9,56.7,30.38,WNW,293,0.0,0.0,41,0.00,,,0.00,WUHU21636XXSP,2013-07-07 15:55:00,
2013-07-07 18:00:00,83.1,56.9,30.38,WNW,293,1.1,1.1,41,0.00,,,0.00,WUHU21636XXSP,2013-07-07 16:00:00,
2013-07-07 18:05:00,83.1,57.6,30.38,WNW,293,0.0,1.1,42,0.00,,,0.00,WUHU21636XXSP,2013-07-07 16:05:00,
2013-07-07 18:10:00,82.8,58.0,30.38,WNW,293,1.3,1.3,43,0.00,,,0.00,WUHU21636XXSP,2013-07-07 16:10:00,
2013-07-07 18:15:00,83.1,56.2,30.38,SSW,203,0.0,1.3,40,0.00,,,0.00,WUHU21636XXSP,2013-07-07 16:15:00,
2013-07-07 18:20:00,83.3,57.1,30.38,SW,225,0.7,1.3,41,0.00,,,0.00,WUHU21636XXSP,2013-07-07 16:20:00,
2013-07-07 18:25:00,81.9,55.8,30.38,WNW,293,1.6,1.6,41,0.00,,,0.00,WUHU21636XXSP,2013-07-07 16:25:00,
2013-07-07 18:30:00,81.3,58.0,30.38,West,270,0.0,1.6,45,0.00,,,0.00,WUHU21636XXSP,2013-07-07 16:30:00,
2013-07-07 18:35:00,81.5,56.2,30.38,WNW,293,0.0,1.6,42,0.00,,,0.00,WUHU21636XXSP,2013-07-07 16:35:00,
2013-07-07 18:40:00,81.7,56.3,30.38,WNW,293,0.0,0.0,42,0.00,,,0.00,WUHU21636XXSP,2013-07-07 16:40:00,
2013-07-07 18:45:00,81.9,56.5,30.38,West,270,0.4,0.4,42,0.00,,,0.00,WUHU21636XXSP,2013-07-07 16:45:00,
2013-07-07 18:51:00,81.9,56.5,30.38,West,270,0.4,0.4,42,0.00,,,0.00,WUHU21636XXSP,2013-07-07 16:51:00,
2013-07-07 19:00:00,80.8,55.5,30.38,WNW,293,0.0,0.4,42,0.00,,,0.00,WUHU21636XXSP,2013-07-07 17:00:00,
2013-07-07 19:05:00,80.6,57.3,30.38,ENE,68,1.8,1.8,45,0.00,,,0.00,WUHU21636XXSP,2013-07-07 17:05:00,
2013-07-07 19:10:00,81.1,56.5,30.38,NNE,23,0.7,1.8,43,0.00,,,0.00,WUHU21636XXSP,2013-07-07 17:10:00,
2013-07-07 19:15:00,81.1,58.4,30.38,NNW,338,1.1,1.8,46,0.00,,,0.00,WUHU21636XXSP,2013-07-07 17:15:00,
2013-07-07 19:20:00,80.2,57.0,30.38,WNW,293,1.6,1.6,45,0.00,,,0.00,WUHU21636XXSP,2013-07-07 17:20:00,
2013-07-07 19:25:00,79.5,56.9,30.38,WNW,293,0.0,1.6,46,0.00,,,0.00,WUHU21636XXSP,2013-07-07 17:25:00,
2013-07-07 19:29:00,79.3,57.2,30.38,WNW,292,0.0,1.6,46,0.00,,,0.00,WUHU21636XXSP,2013-07-07 17:29:00,
2013-07-07 19:34:00,79.7,57.6,30.38,WSW,247,0.7,0.7,47,0.00,,,0.00,WUHU21636XXSP,2013-07-07 17:34:00,
2013-07-07 19:39:00,79.7,57.6,30.38,West,270,1.6,1.6,47,0.00,,,0.00,WUHU21636XXSP,2013-07-07 17:39:00,
2013-07-07 19:45:00,78.6,57.3,30.38,West,270,1.3,1.6,48,0.00,,,0.00,WUHU21636XXSP,2013-07-07 17:45:00,
2013-07-07 19:50:00,78.4,57.7,30.38,West,270,1.6,1.6,49,0.00,,,0.00,WUHU21636XXSP,2013-07-07 17:50:00,
2013-07-07 19:55:00,77.7,57.7,30.38,West,270,0.0,1.6,50,0.00,,,0.00,WUHU21636XXSP,2013-07-07 17:55:00,
2013-07-07 20:00:00,77.4,58.5,30.38,West,270,0.0,1.6,52,0.00,,,0.00,WUHU21636XXSP,2013-07-07 18:00:00,
2013-07-07 20:05:00,77.4,58.0,30.38,West,270,0.4,0.4,51,0.00,,,0.00,WUHU21636XXSP,2013-07-07 18:05:00,
2013-07-07 20:10:00,77.2,58.3,30.38,West,270,0.0,0.4,52,0.00,,,0.00,WUHU21636XXSP,2013-07-07 18:10:00,
2013-07-07 20:15:00,76.8,59.6,30.39,West,270,0.0,0.4,55,0.00,,,0.00,WUHU21636XXSP,2013-07-07 18:15:00,
2013-07-07 20:20:00,76.6,58.3,30.38,West,270,0.0,0.0,53,0.00,,,0.00,WUHU21636XXSP,2013-07-07 18:20:00,
2013-07-07 20:25:00,76.3,58.0,30.39,West,270,0.0,0.0,53,0.00,,,0.00,WUHU21636XXSP,2013-07-07 18:25:00,
2013-07-07 20:30:00,75.2,57.6,30.39,West,270,1.6,1.6,54,0.00,,,0.00,WUHU21636XXSP,2013-07-07 18:30:00,
2013-07-07 20:35:00,74.3,57.2,30.39,WNW,293,0.9,1.6,55,0.00,,,0.00,WUHU21636XXSP,2013-07-07 18:35:00,
2013-07-07 20:40:00,73.9,57.9,30.39,WNW,293,0.9,1.6,57,0.00,,,0.00,WUHU21636XXSP,2013-07-07 18:40:00,
2013-07-07 20:45:00,73.2,57.7,30.39,WNW,293,1.3,1.3,58,0.00,,,0.00,WUHU21636XXSP,2013-07-07 18:45:00,
2013-07-07 20:50:00,73.0,57.5,30.39,WNW,293,1.6,1.6,58,0.00,,,0.00,WUHU21636XXSP,2013-07-07 18:50:00,
2013-07-07 20:55:00,73.0,57.5,30.40,WNW,293,1.8,1.8,58,0.00,,,0.00,WUHU21636XXSP,2013-07-07 18:55:00,
2013-07-07 21:00:00,72.7,57.2,30.39,WNW,293,2.2,2.2,58,0.00,,,0.00,WUHU21636XXSP,2013-07-07 19:00:00,
2013-07-07 21:05:00,72.5,57.1,30.40,WNW,293,1.3,2.2,58,0.00,,,0.00,WUHU21636XXSP,2013-07-07 19:05:00,
2013-07-07 21:10:00,72.3,56.9,30.40,WNW,293,0.0,2.2,58,0.00,,,0.00,WUHU21636XXSP,2013-07-07 19:10:00,
2013-07-07 21:15:00,72.1,57.2,30.40,NW,315,0.4,1.3,59,0.00,,,0.00,WUHU21636XXSP,2013-07-07 19:15:00,
2013-07-07 21:20:00,72.1,57.2,30.40,WNW,293,0.0,0.4,59,0.00,,,0.00,WUHU21636XXSP,2013-07-07 19:20:00,
2013-07-07 21:25:00,71.8,56.9,30.40,WNW,293,0.0,0.4,59,0.00,,,0.00,WUHU21636XXSP,2013-07-07 19:25:00,
2013-07-07 21:30:00,71.4,57.0,30.40,WNW,293,0.0,0.0,60,0.00,,,0.00,WUHU21636XXSP,2013-07-07 19:30:00,
2013-07-07 21:35:00,71.2,56.8,30.40,WNW,293,0.0,0.0,60,0.00,,,0.00,WUHU21636XXSP,2013-07-07 19:35:00,
2013-07-07 21:40:00,70.7,56.3,30.40,WNW,293,0.0,0.0,60,0.00,,,0.00,WUHU21636XXSP,2013-07-07 19:40:00,
2013-07-07 21:45:00,70.3,56.4,30.40,WNW,293,0.0,0.0,61,0.00,,,0.00,WUHU21636XXSP,2013-07-07 19:45:00,
2013-07-07 21:50:00,70.2,56.3,30.40,WNW,293,0.0,0.0,61,0.00,,,0.00,WUHU21636XXSP,2013-07-07 19:50:00,
2013-07-07 21:55:00,70.0,56.6,30.41,WNW,293,0.0,0.0,62,0.00,,,0.00,WUHU21636XXSP,2013-07-07 19:55:00,
2013-07-07 22:00:00,69.4,56.4,30.41,WNW,293,0.0,0.0,63,0.00,,,0.00,WUHU21636XXSP,2013-07-07 20:00:00,
2013-07-07 22:05:00,69.4,56.4,30.41,WNW,293,0.0,0.0,63,0.00,,,0.00,WUHU21636XXSP,2013-07-07 20:05:00,
2013-07-07 22:10:00,69.1,56.2,30.41,WNW,293,0.0,0.0,63,0.00,,,0.00,WUHU21636XXSP,2013-07-07 20:10:00,
2013-07-07 22:15:00,68.9,56.4,30.41,WNW,293,0.0,0.0,64,0.00,,,0.00,WUHU21636XXSP,2013-07-07 20:15:00,
2013-07-07 22:20:00,68.7,56.6,30.41,WNW,293,0.0,0.0,65,0.00,,,0.00,WUHU21636XXSP,2013-07-07 20:20:00,
2013-07-07 22:25:00,68.5,56.5,30.42,West,270,0.0,0.0,65,0.00,,,0.00,WUHU21636XXSP,2013-07-07 20:25:00,
2013-07-07 22:30:00,68.2,56.6,30.42,SE,135,0.7,0.7,66,0.00,,,0.00,WUHU21636XXSP,2013-07-07 20:30:00,
2013-07-07 22:35:00,67.6,56.4,30.42,SE,135,0.7,0.7,67,0.00,,,0.00,WUHU21636XXSP,2013-07-07 20:35:00,
2013-07-07 22:40:00,67.3,56.5,30.42,SE,135,0.0,0.7,68,0.00,,,0.00,WUHU21636XXSP,2013-07-07 20:40:00,
2013-07-07 22:45:00,67.1,56.8,30.42,ESE,113,1.6,1.6,69,0.00,,,0.00,WUHU21636XXSP,2013-07-07 20:45:00,
2013-07-07 22:50:00,66.6,56.7,30.42,SE,135,0.4,1.6,70,0.00,,,0.00,WUHU21636XXSP,2013-07-07 20:50:00,
2013-07-07 22:55:00,66.4,56.9,30.42,SE,135,1.8,1.8,71,0.00,,,0.00,WUHU21636XXSP,2013-07-07 20:55:00,
2013-07-07 23:00:00,66.0,56.9,30.43,SE,135,1.3,1.8,72,0.00,,,0.00,WUHU21636XXSP,2013-07-07 21:00:00,
2013-07-07 23:05:00,65.8,57.0,30.42,SE,135,0.4,1.8,73,0.00,,,0.00,WUHU21636XXSP,2013-07-07 21:05:00,
2013-07-07 23:10:00,65.5,56.8,30.42,SE,135,0.9,1.3,73,0.00,,,0.00,WUHU21636XXSP,2013-07-07 21:10:00,
2013-07-07 23:15:00,65.3,56.9,30.42,SE,135,0.7,0.9,74,0.00,,,0.00,WUHU21636XXSP,2013-07-07 21:15:00,
2013-07-07 23:20:00,65.1,56.7,30.43,SE,135,1.3,1.3,74,0.00,,,0.00,WUHU21636XXSP,2013-07-07 21:20:00,
2013-07-07 23:25:00,64.9,56.9,30.42,SE,135,0.0,1.3,75,0.00,,,0.00,WUHU21636XXSP,2013-07-07 21:25:00,
2013-07-07 23:30:00,64.9,56.9,30.43,ESE,113,2.2,2.2,75,0.00,,,0.00,WUHU21636XXSP,2013-07-07 21:30:00,
2013-07-07 23:35:00,64.6,57.0,30.43,ESE,113,0.9,2.2,76,0.00,,,0.00,WUHU21636XXSP,2013-07-07 21:35:00,
2013-07-07 23:40:00,64.6,57.0,30.43,SE,135,0.9,2.2,76,0.00,,,0.00,WUHU21636XXSP,2013-07-07 21:40:00,
2013-07-07 23:45:00,64.4,56.8,30.43,SE,135,0.4,0.9,76,0.00,,,0.00,WUHU21636XXSP,2013-07-07 21:45:00,
2013-07-07 23:50:00,64.0,56.4,30.43,SSE,158,0.9,0.9,76,0.00,,,0.00,WUHU21636XXSP,2013-07-07 21:50:00,
2013-07-07 23:55:00,64.0,56.4,30.43,ESE,113,0.7,0.9,76,0.00,,,0.00,WUHU21636XXSP,2013-07-07 21:55:00,